createdAt,value
2017-07-30T00:00:43.057Z,18.00
2017-07-30T00:03:11.351Z,17.90
2017-07-30T00:05:39.639Z,17.90
2017-07-30T00:08:08.672Z,17.80
2017-07-30T00:10:36.995Z,17.80
2017-07-30T00:13:06.020Z,17.80
2017-07-30T00:15:34.342Z,17.80
2017-07-30T00:18:03.420Z,17.70
2017-07-30T00:20:31.689Z,17.70
2017-07-30T00:22:59.960Z,17.70
2017-07-30T00:25:28.264Z,17.70
2017-07-30T00:27:56.532Z,17.60
2017-07-30T00:30:24.803Z,17.50
2017-07-30T00:32:53.299Z,17.50
2017-07-30T00:35:21.563Z,17.40
2017-07-30T00:37:49.838Z,17.50
2017-07-30T00:40:18.997Z,17.50
2017-07-30T00:42:47.292Z,17.40
2017-07-30T00:45:15.557Z,17.50
2017-07-30T00:47:43.861Z,17.50
2017-07-30T00:50:12.131Z,17.40
2017-07-30T00:52:41.167Z,17.40
2017-07-30T00:55:09.481Z,17.30
2017-07-30T00:57:38.511Z,17.30
2017-07-30T01:00:06.784Z,17.30
2017-07-30T01:02:35.084Z,17.30
2017-07-30T01:05:03.356Z,17.30
2017-07-30T01:07:31.620Z,17.30
2017-07-30T01:09:59.924Z,17.30
2017-07-30T01:12:28.183Z,17.30
2017-07-30T01:14:56.455Z,17.30
2017-07-30T01:17:24.752Z,17.30
2017-07-30T01:19:53.016Z,17.30
2017-07-30T01:22:21.275Z,17.20
2017-07-30T01:24:49.599Z,17.20
2017-07-30T01:27:17.861Z,17.10
2017-07-30T01:29:46.124Z,17.10
2017-07-30T01:32:14.448Z,17.00
2017-07-30T01:34:42.712Z,17.10
2017-07-30T01:37:10.983Z,17.10
2017-07-30T01:39:39.280Z,17.10
2017-07-30T01:42:07.547Z,17.20
2017-07-30T01:44:36.588Z,17.20
2017-07-30T01:47:04.903Z,17.20
2017-07-30T01:49:33.179Z,17.40
2017-07-30T01:52:01.453Z,17.30
2017-07-30T01:54:29.764Z,17.20
2017-07-30T01:56:58.036Z,17.20
2017-07-30T01:59:27.067Z,17.00
2017-07-30T02:01:55.638Z,17.00
2017-07-30T02:04:23.903Z,17.00
2017-07-30T02:06:52.167Z,16.90
2017-07-30T02:09:20.472Z,16.90
2017-07-30T02:11:49.540Z,16.90
2017-07-30T02:14:18.567Z,16.90
2017-07-30T02:16:47.079Z,16.80
2017-07-30T02:19:15.352Z,16.90
2017-07-30T02:21:44.380Z,16.80
2017-07-30T02:24:12.692Z,16.70
2017-07-30T02:26:41.719Z,16.70
2017-07-30T02:29:09.983Z,16.70
2017-07-30T02:31:38.295Z,16.80
2017-07-30T02:34:07.329Z,16.80
2017-07-30T02:36:35.587Z,16.70
2017-07-30T02:39:03.897Z,16.80
2017-07-30T02:41:32.929Z,16.60
2017-07-30T02:44:01.209Z,16.60
2017-07-30T02:46:29.511Z,16.50
2017-07-30T02:48:58.543Z,16.50
2017-07-30T02:51:26.828Z,16.40
2017-07-30T02:53:55.291Z,16.50
2017-07-30T02:56:24.468Z,16.40
2017-07-30T02:58:52.732Z,16.50
2017-07-30T03:01:21.052Z,16.50
2017-07-30T03:03:49.344Z,16.40
2017-07-30T03:06:17.608Z,16.50
2017-07-30T03:08:45.915Z,16.50
2017-07-30T03:11:14.198Z,16.50
2017-07-30T03:13:42.500Z,16.50
2017-07-30T03:16:10.975Z,16.40
2017-07-30T03:18:39.235Z,16.40
2017-07-30T03:21:08.267Z,16.50
2017-07-30T03:23:36.581Z,16.50
2017-07-30T03:26:04.834Z,16.50
2017-07-30T03:28:33.876Z,16.50
2017-07-30T03:31:02.397Z,16.40
2017-07-30T03:33:31.428Z,16.30
2017-07-30T03:35:59.704Z,16.30
2017-07-30T03:38:28.022Z,16.30
2017-07-30T03:40:56.280Z,16.30
2017-07-30T03:43:24.552Z,16.30
2017-07-30T03:45:52.853Z,16.30
2017-07-30T03:48:21.116Z,16.30
2017-07-30T03:50:49.383Z,16.20
2017-07-30T03:53:17.858Z,16.30
2017-07-30T03:55:46.121Z,16.30
2017-07-30T03:58:14.387Z,16.30
2017-07-30T04:00:43.455Z,16.40
2017-07-30T04:03:11.729Z,16.40
2017-07-30T04:05:40.751Z,16.50
2017-07-30T04:08:09.042Z,16.40
2017-07-30T04:10:37.308Z,16.40
2017-07-30T04:13:05.572Z,16.40
2017-07-30T04:15:33.891Z,16.40
2017-07-30T04:18:02.156Z,16.50
2017-07-30T04:20:30.428Z,16.40
2017-07-30T04:22:58.823Z,16.50
2017-07-30T04:25:27.100Z,16.50
2017-07-30T04:27:56.132Z,16.50
2017-07-30T04:30:24.436Z,16.40
2017-07-30T04:32:54.291Z,16.50
2017-07-30T04:35:22.556Z,16.50
2017-07-30T04:37:50.859Z,16.70
2017-07-30T04:40:19.897Z,16.80
2017-07-30T04:42:48.164Z,16.70
2017-07-30T04:45:16.462Z,16.90
2017-07-30T04:47:45.486Z,17.10
2017-07-30T04:50:13.768Z,17.10
2017-07-30T04:52:42.073Z,17.20
2017-07-30T04:55:11.091Z,17.30
2017-07-30T04:57:39.359Z,17.30
2017-07-30T05:00:07.680Z,17.40
2017-07-30T05:02:35.944Z,17.40
2017-07-30T05:05:04.207Z,17.60
2017-07-30T05:07:32.535Z,17.70
2017-07-30T05:10:00.883Z,17.90
2017-07-30T05:12:29.138Z,18.00
2017-07-30T05:14:57.443Z,18.20
2017-07-30T05:17:25.719Z,18.30
2017-07-30T05:19:53.979Z,18.40
2017-07-30T05:22:22.283Z,18.50
2017-07-30T05:24:50.548Z,18.70
2017-07-30T05:27:18.892Z,18.80
2017-07-30T05:29:47.200Z,18.90
2017-07-30T05:32:16.236Z,19.00
2017-07-30T05:34:44.527Z,19.00
2017-07-30T05:37:12.815Z,19.10
2017-07-30T05:39:41.840Z,19.30
2017-07-30T05:42:10.108Z,19.30
2017-07-30T05:44:38.403Z,19.40
2017-07-30T05:47:07.437Z,19.50
2017-07-30T05:49:35.699Z,19.50
2017-07-30T05:52:04.003Z,19.60
2017-07-30T05:54:33.039Z,19.80
2017-07-30T05:57:01.300Z,19.80
2017-07-30T05:59:29.612Z,19.90
2017-07-30T06:01:58.654Z,20.10
2017-07-30T06:04:26.925Z,20.10
2017-07-30T06:06:55.231Z,20.20
2017-07-30T06:09:23.504Z,20.30
2017-07-30T06:11:51.772Z,20.40
2017-07-30T06:14:20.083Z,20.60
2017-07-30T06:16:48.353Z,20.70
2017-07-30T06:19:16.616Z,20.70
2017-07-30T06:21:44.935Z,20.80
2017-07-30T06:24:13.195Z,20.90
2017-07-30T06:26:41.464Z,21.10
2017-07-30T06:29:09.775Z,21.10
2017-07-30T06:31:38.875Z,21.40
2017-07-30T06:34:07.144Z,21.40
2017-07-30T06:36:35.538Z,21.40
2017-07-30T06:39:03.937Z,21.60
2017-07-30T06:41:32.963Z,21.90
2017-07-30T06:44:01.268Z,21.80
2017-07-30T06:46:30.295Z,22.20
2017-07-30T06:48:58.588Z,22.10
2017-07-30T06:51:26.887Z,22.30
2017-07-30T06:53:55.920Z,22.70
2017-07-30T06:56:24.196Z,22.70
2017-07-30T06:58:52.492Z,22.90
2017-07-30T07:01:20.759Z,23.00
2017-07-30T07:03:49.031Z,23.10
2017-07-30T07:06:17.348Z,23.00
2017-07-30T07:08:45.621Z,23.10
2017-07-30T07:11:14.660Z,23.30
2017-07-30T07:13:42.964Z,23.20
2017-07-30T07:16:12.000Z,23.40
2017-07-30T07:18:40.288Z,23.40
2017-07-30T07:21:08.607Z,23.30
2017-07-30T07:23:36.896Z,23.30
2017-07-30T07:26:05.159Z,23.30
2017-07-30T07:28:33.463Z,23.50
2017-07-30T07:31:01.737Z,23.70
2017-07-30T07:33:30.019Z,23.80
2017-07-30T07:35:58.320Z,23.90
2017-07-30T07:38:26.597Z,23.80
2017-07-30T07:40:55.628Z,23.70
2017-07-30T07:43:23.936Z,23.70
2017-07-30T07:45:52.977Z,24.00
2017-07-30T07:48:21.253Z,23.90
2017-07-30T07:50:49.572Z,24.00
2017-07-30T07:53:17.843Z,24.10
2017-07-30T07:55:46.109Z,24.20
2017-07-30T07:58:14.428Z,24.20
2017-07-30T08:00:43.459Z,24.50
2017-07-30T08:03:11.733Z,24.50
2017-07-30T08:05:40.053Z,24.60
2017-07-30T08:08:08.320Z,24.90
2017-07-30T08:10:36.607Z,25.00
2017-07-30T08:13:04.911Z,25.10
2017-07-30T08:15:33.950Z,25.20
2017-07-30T08:18:02.215Z,25.20
2017-07-30T08:20:30.539Z,25.30
2017-07-30T08:22:58.828Z,25.40
2017-07-30T08:25:27.100Z,25.50
2017-07-30T08:27:55.424Z,25.60
2017-07-30T08:30:23.700Z,25.70
2017-07-30T08:32:51.995Z,25.80
2017-07-30T08:35:20.340Z,25.90
2017-07-30T08:37:48.622Z,26.00
2017-07-30T08:40:16.913Z,26.10
2017-07-30T08:42:45.237Z,26.20
2017-07-30T08:45:13.507Z,26.30
2017-07-30T08:47:41.780Z,26.30
2017-07-30T08:50:10.852Z,26.60
2017-07-30T08:52:39.128Z,26.50
2017-07-30T08:55:07.400Z,26.70
2017-07-30T08:57:36.469Z,27.00
2017-07-30T09:00:05.500Z,27.10
2017-07-30T09:02:33.771Z,27.10
2017-07-30T09:05:02.098Z,27.20
2017-07-30T09:07:30.369Z,27.40
2017-07-30T09:09:58.648Z,27.40
2017-07-30T09:12:26.952Z,27.50
2017-07-30T09:14:56.040Z,27.90
2017-07-30T09:17:25.064Z,28.00
2017-07-30T09:19:53.378Z,28.00
2017-07-30T09:22:22.404Z,28.20
2017-07-30T09:24:50.659Z,28.10
2017-07-30T09:27:18.967Z,28.20
2017-07-30T09:29:48.003Z,28.50
2017-07-30T09:32:16.276Z,28.40
2017-07-30T09:34:44.575Z,28.50
2017-07-30T09:37:13.611Z,28.50
2017-07-30T09:39:41.888Z,28.40
2017-07-30T09:42:10.447Z,28.50
2017-07-30T09:44:38.715Z,28.50
2017-07-30T09:47:06.975Z,28.50
2017-07-30T09:49:35.619Z,28.60
2017-07-30T09:52:03.890Z,28.90
2017-07-30T09:54:32.160Z,28.90
2017-07-30T09:57:00.780Z,29.00
2017-07-30T09:59:29.807Z,29.20
2017-07-30T10:01:58.076Z,29.20
2017-07-30T10:04:26.392Z,29.30
2017-07-30T10:06:54.655Z,29.30
2017-07-30T10:09:22.932Z,29.50
2017-07-30T10:11:51.234Z,29.40
2017-07-30T10:14:19.499Z,29.30
2017-07-30T10:16:47.763Z,29.30
2017-07-30T10:19:16.459Z,29.20
2017-07-30T10:21:45.480Z,29.50
2017-07-30T10:24:13.756Z,29.40
2017-07-30T10:26:42.072Z,29.50
2017-07-30T10:29:10.340Z,29.20
2017-07-30T10:31:38.608Z,29.30
2017-07-30T10:34:06.921Z,29.60
2017-07-30T10:36:35.183Z,29.80
2017-07-30T10:39:03.460Z,29.90
2017-07-30T10:41:32.536Z,30.10
2017-07-30T10:44:01.564Z,30.20
2017-07-30T10:46:29.833Z,30.20
2017-07-30T10:48:58.143Z,30.30
2017-07-30T10:51:27.172Z,30.60
2017-07-30T10:53:55.440Z,30.50
2017-07-30T10:56:23.741Z,30.60
2017-07-30T10:58:52.776Z,30.90
2017-07-30T11:01:21.040Z,30.80
2017-07-30T11:03:49.440Z,31.10
2017-07-30T11:06:18.476Z,31.30
2017-07-30T11:08:46.743Z,31.20
2017-07-30T11:11:15.051Z,31.20
2017-07-30T11:13:44.075Z,30.80
2017-07-30T11:16:12.343Z,30.80
2017-07-30T11:18:40.648Z,31.00
2017-07-30T11:21:09.696Z,31.30
2017-07-30T11:23:37.951Z,31.30
2017-07-30T11:26:06.264Z,31.60
2017-07-30T11:28:35.291Z,31.70
2017-07-30T11:31:03.560Z,31.70
2017-07-30T11:33:31.854Z,31.80
2017-07-30T11:36:00.883Z,31.80
2017-07-30T11:38:29.156Z,31.70
2017-07-30T11:40:57.460Z,31.90
2017-07-30T11:43:26.494Z,31.90
2017-07-30T11:45:54.764Z,31.80
2017-07-30T11:48:23.069Z,32.10
2017-07-30T11:50:51.340Z,32.10
2017-07-30T11:53:19.615Z,32.00
2017-07-30T11:55:47.995Z,32.00
2017-07-30T11:58:16.267Z,32.10
2017-07-30T12:00:44.536Z,32.20
2017-07-30T12:03:12.828Z,32.10
2017-07-30T12:05:41.858Z,32.00
2017-07-30T12:08:10.128Z,32.00
2017-07-30T12:10:38.431Z,32.30
2017-07-30T12:13:07.455Z,32.30
2017-07-30T12:15:35.732Z,32.20
2017-07-30T12:18:04.039Z,32.50
2017-07-30T12:20:33.079Z,32.60
2017-07-30T12:23:01.331Z,32.50
2017-07-30T12:25:29.648Z,32.50
2017-07-30T12:27:57.928Z,32.30
2017-07-30T12:30:26.184Z,32.60
2017-07-30T12:32:54.484Z,32.90
2017-07-30T12:35:22.747Z,32.70
2017-07-30T12:37:51.020Z,32.90
2017-07-30T12:40:19.344Z,33.10
2017-07-30T12:42:47.612Z,32.80
2017-07-30T12:45:16.219Z,32.90
2017-07-30T12:47:44.523Z,33.00
2017-07-30T12:50:12.791Z,33.20
2017-07-30T12:52:41.061Z,33.50
2017-07-30T12:55:09.369Z,33.60
2017-07-30T12:57:38.398Z,32.90
2017-07-30T13:00:06.659Z,32.80
2017-07-30T13:02:34.961Z,32.30
2017-07-30T13:05:03.232Z,32.20
2017-07-30T13:07:32.264Z,32.50
2017-07-30T13:10:00.566Z,32.50
2017-07-30T13:12:29.603Z,32.20
2017-07-30T13:14:57.867Z,32.10
2017-07-30T13:17:26.180Z,31.90
2017-07-30T13:19:55.203Z,32.40
2017-07-30T13:22:23.467Z,32.40
2017-07-30T13:24:51.975Z,32.80
2017-07-30T13:27:21.008Z,33.70
2017-07-30T13:29:49.296Z,33.60
2017-07-30T13:32:17.783Z,33.70
2017-07-30T13:34:46.840Z,34.00
2017-07-30T13:37:15.112Z,34.00
2017-07-30T13:39:43.412Z,34.30
2017-07-30T13:42:11.683Z,34.50
2017-07-30T13:44:39.945Z,34.50
2017-07-30T13:47:08.244Z,34.60
2017-07-30T13:49:36.511Z,34.60
2017-07-30T13:52:04.784Z,34.70
2017-07-30T13:54:33.084Z,34.60
2017-07-30T13:57:01.351Z,34.70
2017-07-30T13:59:29.615Z,34.80
2017-07-30T14:01:57.916Z,35.00
2017-07-30T14:04:26.184Z,34.90
2017-07-30T14:06:54.452Z,34.80
2017-07-30T14:09:22.748Z,34.30
2017-07-30T14:11:51.021Z,34.30
2017-07-30T14:14:19.363Z,33.90
2017-07-30T14:16:47.669Z,33.50
2017-07-30T14:19:15.936Z,33.20
2017-07-30T14:21:44.216Z,32.80
2017-07-30T14:24:12.528Z,32.40
2017-07-30T14:26:40.795Z,32.10
2017-07-30T14:29:09.067Z,31.90
2017-07-30T14:31:37.395Z,31.40
2017-07-30T14:34:06.423Z,30.80
2017-07-30T14:36:34.683Z,30.70
2017-07-30T14:39:02.996Z,30.50
2017-07-30T14:41:31.259Z,30.20
2017-07-30T14:43:59.531Z,30.10
2017-07-30T14:46:27.845Z,29.80
2017-07-30T14:48:56.106Z,29.60
2017-07-30T14:51:24.376Z,29.60
2017-07-30T14:53:52.680Z,29.30
2017-07-30T14:56:20.938Z,28.90
2017-07-30T14:58:49.207Z,28.70
2017-07-30T15:01:17.508Z,28.60
2017-07-30T15:03:45.782Z,28.40
2017-07-30T15:06:14.052Z,28.40
2017-07-30T15:08:43.107Z,28.20
2017-07-30T15:11:11.379Z,28.10
2017-07-30T15:13:39.661Z,28.00
2017-07-30T15:16:08.748Z,28.00
2017-07-30T15:18:37.775Z,27.90
2017-07-30T15:21:06.039Z,27.90
2017-07-30T15:23:34.335Z,27.90
2017-07-30T15:26:03.367Z,27.50
2017-07-30T15:28:31.643Z,27.50
2017-07-30T15:30:59.971Z,27.10
2017-07-30T15:33:28.240Z,26.50
2017-07-30T15:35:56.508Z,25.90
2017-07-30T15:38:24.827Z,25.30
2017-07-30T15:40:53.860Z,24.50
2017-07-30T15:43:22.236Z,24.40
2017-07-30T15:45:50.563Z,24.10
2017-07-30T15:48:20.222Z,23.80
2017-07-30T15:50:49.256Z,23.70
2017-07-30T15:53:17.583Z,23.60
2017-07-30T15:55:45.842Z,23.70
2017-07-30T15:58:14.111Z,23.50
2017-07-30T16:00:42.420Z,23.30
2017-07-30T16:03:10.687Z,23.20
2017-07-30T16:05:38.963Z,23.40
2017-07-30T16:08:07.260Z,23.50
2017-07-30T16:10:35.532Z,23.60
2017-07-30T16:13:03.803Z,23.60
2017-07-30T16:15:32.116Z,23.60
2017-07-30T16:18:01.180Z,23.80
2017-07-30T16:20:29.436Z,23.80
2017-07-30T16:22:57.747Z,24.00
2017-07-30T16:25:26.023Z,24.20
2017-07-30T16:27:54.304Z,24.50
2017-07-30T16:30:22.617Z,24.90
2017-07-30T16:32:50.888Z,25.40
2017-07-30T16:35:19.168Z,25.60
2017-07-30T16:37:47.579Z,25.70
2017-07-30T16:40:15.848Z,25.60
2017-07-30T16:42:44.889Z,25.40
2017-07-30T16:45:13.211Z,25.40
2017-07-30T16:47:41.481Z,25.40
2017-07-30T16:50:09.765Z,25.30
2017-07-30T16:52:38.076Z,25.40
2017-07-30T16:55:07.120Z,25.20
2017-07-30T16:57:35.388Z,25.20
2017-07-30T17:00:03.732Z,25.10
2017-07-30T17:02:32.016Z,25.10
2017-07-30T17:05:00.308Z,25.00
2017-07-30T17:07:28.648Z,24.90
2017-07-30T17:09:56.915Z,25.00
2017-07-30T17:12:26.207Z,24.90
2017-07-30T17:14:55.290Z,25.00
2017-07-30T17:17:24.374Z,25.20
2017-07-30T17:19:53.404Z,25.10
2017-07-30T17:22:21.907Z,25.10
2017-07-30T17:24:50.963Z,25.10
2017-07-30T17:27:19.239Z,25.10
2017-07-30T17:29:47.556Z,25.20
2017-07-30T17:32:15.871Z,25.20
2017-07-30T17:34:44.456Z,25.10
2017-07-30T17:37:12.856Z,25.20
2017-07-30T17:39:41.133Z,25.20
2017-07-30T17:42:09.420Z,25.10
2017-07-30T17:44:37.723Z,25.10
2017-07-30T17:47:05.996Z,25.00
2017-07-30T17:49:34.274Z,25.10
2017-07-30T17:52:02.575Z,25.10
2017-07-30T17:54:31.619Z,25.00
2017-07-30T17:56:59.888Z,24.90
2017-07-30T17:59:28.185Z,25.00
2017-07-30T18:01:57.216Z,25.00
2017-07-30T18:04:25.492Z,25.00
2017-07-30T18:06:54.891Z,25.10
2017-07-30T18:09:23.164Z,25.00
2017-07-30T18:11:52.205Z,25.10
2017-07-30T18:14:20.890Z,25.10
2017-07-30T18:16:49.156Z,25.10
2017-07-30T18:19:17.519Z,25.00
2017-07-30T18:21:46.719Z,25.00
2017-07-30T18:24:14.995Z,25.00
2017-07-30T18:26:44.040Z,24.90
2017-07-30T18:29:12.339Z,24.80
2017-07-30T18:31:41.372Z,24.70
2017-07-30T18:34:09.640Z,24.60
2017-07-30T18:36:37.963Z,24.70
2017-07-30T18:39:06.247Z,24.60
2017-07-30T18:41:34.503Z,24.60
2017-07-30T18:44:02.816Z,24.40
2017-07-30T18:46:31.858Z,24.40
2017-07-30T18:49:00.123Z,24.30
2017-07-30T18:51:28.440Z,24.40
2017-07-30T18:53:56.712Z,24.30
2017-07-30T18:56:24.983Z,24.20
2017-07-30T18:58:53.292Z,24.20
2017-07-30T19:01:22.326Z,24.00
2017-07-30T19:03:50.600Z,23.90
2017-07-30T19:06:18.916Z,24.00
2017-07-30T19:08:47.187Z,23.80
2017-07-30T19:11:15.464Z,23.70
2017-07-30T19:13:43.768Z,23.60
2017-07-30T19:16:12.035Z,23.60
2017-07-30T19:18:40.299Z,23.50
2017-07-30T19:21:08.619Z,23.40
2017-07-30T19:23:36.888Z,23.40
2017-07-30T19:26:05.154Z,23.40
2017-07-30T19:28:33.460Z,23.10
2017-07-30T19:31:02.496Z,23.00
2017-07-30T19:33:30.979Z,22.90
2017-07-30T19:36:00.183Z,22.80
2017-07-30T19:38:29.219Z,22.60
2017-07-30T19:40:57.492Z,22.60
2017-07-30T19:43:25.800Z,22.50
2017-07-30T19:45:54.071Z,22.50
2017-07-30T19:48:22.347Z,22.50
2017-07-30T19:50:50.671Z,22.40
2017-07-30T19:53:19.711Z,22.40
2017-07-30T19:55:47.979Z,22.40
2017-07-30T19:58:16.468Z,22.30
2017-07-30T20:00:45.503Z,22.20
2017-07-30T20:03:13.791Z,22.10
2017-07-30T20:05:42.094Z,22.10
2017-07-30T20:08:11.119Z,22.20
2017-07-30T20:10:39.395Z,22.10
2017-07-30T20:13:07.711Z,22.20
2017-07-30T20:15:35.983Z,22.20
2017-07-30T20:18:04.247Z,22.10
2017-07-30T20:20:32.787Z,22.00
2017-07-30T20:23:01.060Z,22.00
2017-07-30T20:25:29.331Z,22.00
2017-07-30T20:27:57.665Z,22.10
2017-07-30T20:30:26.695Z,22.00
2017-07-30T20:32:54.964Z,22.00
2017-07-30T20:35:23.627Z,22.00
2017-07-30T20:37:51.908Z,22.00
2017-07-30T20:40:20.184Z,22.00
2017-07-30T20:42:49.255Z,22.10
2017-07-30T20:45:18.301Z,22.20
2017-07-30T20:47:46.575Z,22.10
2017-07-30T20:50:15.063Z,22.30
2017-07-30T20:52:43.334Z,22.30
2017-07-30T20:55:12.368Z,22.10
2017-07-30T20:57:40.676Z,22.10
2017-07-30T21:00:09.712Z,22.00
2017-07-30T21:02:37.984Z,21.90
2017-07-30T21:05:06.305Z,21.90
2017-07-30T21:07:34.570Z,21.80
2017-07-30T21:10:02.841Z,21.80
2017-07-30T21:12:31.983Z,21.70
2017-07-30T21:15:01.029Z,21.60
2017-07-30T21:17:29.291Z,21.60
2017-07-30T21:19:57.607Z,21.60
2017-07-30T21:22:25.867Z,21.60
2017-07-30T21:24:54.142Z,21.60
2017-07-30T21:27:22.452Z,21.60
2017-07-30T21:29:51.496Z,21.50
2017-07-30T21:32:19.778Z,21.50
2017-07-30T21:34:48.072Z,21.50
2017-07-30T21:37:17.116Z,21.50
2017-07-30T21:39:45.384Z,21.40
2017-07-30T21:42:13.700Z,21.50
2017-07-30T21:44:41.964Z,21.40
2017-07-30T21:47:10.240Z,21.40
2017-07-30T21:49:38.527Z,21.40
2017-07-30T21:52:06.800Z,21.40
2017-07-30T21:54:35.380Z,21.30
2017-07-30T21:57:04.456Z,21.30
2017-07-30T21:59:32.732Z,21.20
2017-07-30T22:02:01.763Z,21.20
2017-07-30T22:04:30.078Z,21.20
2017-07-30T22:06:59.103Z,21.20
2017-07-30T22:09:27.396Z,21.20
2017-07-30T22:11:55.707Z,21.10
2017-07-30T22:14:25.012Z,21.10
2017-07-30T22:16:53.279Z,21.00
2017-07-30T22:19:21.564Z,20.90
2017-07-30T22:21:49.832Z,20.90
2017-07-30T22:24:18.876Z,20.90
2017-07-30T22:26:47.277Z,20.80
2017-07-30T22:29:15.561Z,20.80
2017-07-30T22:31:43.836Z,20.80
2017-07-30T22:34:12.138Z,20.80
2017-07-30T22:36:40.395Z,20.80
2017-07-30T22:39:08.671Z,20.80
2017-07-30T22:41:37.084Z,20.90
2017-07-30T22:44:05.343Z,20.80
2017-07-30T22:46:33.612Z,20.90
2017-07-30T22:49:01.996Z,20.90
2017-07-30T22:51:30.260Z,20.90
2017-07-30T22:53:58.532Z,20.80
2017-07-30T22:56:26.852Z,20.60
2017-07-30T22:58:55.115Z,20.50
2017-07-30T23:01:23.391Z,20.40
2017-07-30T23:03:51.688Z,20.40
2017-07-30T23:06:19.955Z,20.40
2017-07-30T23:08:48.232Z,20.30
2017-07-30T23:11:17.316Z,20.40
2017-07-30T23:13:45.567Z,20.30
2017-07-30T23:16:14.608Z,20.30
2017-07-30T23:18:42.903Z,20.30
2017-07-30T23:21:11.931Z,20.40
2017-07-30T23:23:40.196Z,20.30
2017-07-30T23:26:08.499Z,20.40
2017-07-30T23:28:36.771Z,20.40
2017-07-30T23:31:05.815Z,20.40
2017-07-30T23:33:34.099Z,20.30
2017-07-30T23:36:02.369Z,20.40
2017-07-30T23:38:31.407Z,20.30
2017-07-30T23:41:00.354Z,20.30
2017-07-30T23:43:28.616Z,20.30
2017-07-30T23:45:56.888Z,20.30
2017-07-30T23:48:25.183Z,20.40
2017-07-30T23:50:53.443Z,20.40
2017-07-30T23:53:21.716Z,20.30
2017-07-30T23:55:50.039Z,20.20
2017-07-30T23:58:18.303Z,20.20
